createdAt,value
2022-08-28T00:00:39.705Z,100156.60
2022-08-28T00:03:10.375Z,100156.00
2022-08-28T00:05:41.996Z,100154.80
2022-08-28T00:08:14.319Z,100155.00
2022-08-28T00:10:43.643Z,100153.80
2022-08-28T00:13:18.717Z,100155.00
2022-08-28T00:15:54.962Z,100156.40
2022-08-28T00:18:23.221Z,100154.20
2022-08-28T00:20:52.311Z,100154.40
2022-08-28T00:23:21.458Z,100154.00
2022-08-28T00:25:49.414Z,100153.00
2022-08-28T00:28:23.650Z,100151.80
2022-08-28T00:30:58.417Z,100156.80
2022-08-28T00:33:34.492Z,100156.80
2022-08-28T00:36:03.995Z,100152.60
2022-08-28T00:38:31.926Z,100150.60
2022-08-28T00:41:03.850Z,100148.80
2022-08-28T00:43:42.616Z,100144.40
2022-08-28T00:46:20.336Z,100141.80
2022-08-28T00:48:50.109Z,100139.60
2022-08-28T00:51:38.928Z,100144.60
2022-08-28T00:54:08.515Z,100142.80
2022-08-28T00:56:39.260Z,100139.60
2022-08-28T00:59:15.662Z,100139.40
2022-08-28T01:01:45.949Z,100139.00
2022-08-28T01:04:20.302Z,100139.40
2022-08-28T01:06:54.088Z,100141.40
2022-08-28T01:09:27.321Z,100139.20
2022-08-28T01:12:03.238Z,100138.20
2022-08-28T01:14:33.872Z,100139.80
2022-08-28T01:17:02.422Z,100136.20
2022-08-28T01:19:38.122Z,100134.00
2022-08-28T01:22:15.657Z,100133.80
2022-08-28T01:24:45.229Z,100135.40
2022-08-28T01:27:13.190Z,100135.60
2022-08-28T01:29:41.063Z,100135.20
2022-08-28T01:32:14.012Z,100135.80
2022-08-28T01:34:41.810Z,100135.60
2022-08-28T01:37:09.694Z,100134.60
2022-08-28T01:39:37.459Z,100135.40
2022-08-28T01:42:06.911Z,100132.20
2022-08-28T01:44:34.707Z,100131.00
2022-08-28T01:47:02.577Z,100132.00
2022-08-28T01:49:30.528Z,100131.80
2022-08-28T01:51:58.757Z,100134.20
2022-08-28T01:54:28.862Z,100129.20
2022-08-28T01:56:56.777Z,100132.40
2022-08-28T01:59:24.568Z,100129.20
2022-08-28T02:01:52.419Z,100129.40
2022-08-28T02:04:20.417Z,100129.60
2022-08-28T02:06:59.940Z,100131.80
2022-08-28T02:09:27.656Z,100133.00
2022-08-28T02:11:55.710Z,100131.40
2022-08-28T02:14:23.553Z,100130.40
2022-08-28T02:16:52.034Z,100131.20
2022-08-28T02:19:20.904Z,100131.40
2022-08-28T02:21:49.391Z,100130.80
2022-08-28T02:24:17.609Z,100130.40
2022-08-28T02:26:45.459Z,100131.80
2022-08-28T02:29:13.320Z,100131.80
2022-08-28T02:31:41.145Z,100127.20
2022-08-28T02:34:11.523Z,100126.80
2022-08-28T02:36:42.655Z,100123.20
2022-08-28T02:39:11.310Z,100122.20
2022-08-28T02:41:39.306Z,100123.60
2022-08-28T02:44:07.191Z,100119.60
2022-08-28T02:46:35.098Z,100124.00
2022-08-28T02:49:03.027Z,100123.80
2022-08-28T02:51:33.566Z,100130.60
2022-08-28T02:54:02.703Z,100124.80
2022-08-28T02:56:31.062Z,100126.40
2022-08-28T02:58:58.864Z,100131.40
2022-08-28T03:01:26.772Z,100131.20
2022-08-28T03:03:54.681Z,100129.80
2022-08-28T03:06:23.188Z,100129.80
2022-08-28T03:08:51.177Z,100129.40
2022-08-28T03:11:19.213Z,100127.20
2022-08-28T03:13:47.108Z,100128.00
2022-08-28T03:16:15.259Z,100131.20
2022-08-28T03:18:43.086Z,100128.20
2022-08-28T03:21:11.932Z,100125.60
2022-08-28T03:23:40.296Z,100122.80
2022-08-28T03:26:13.902Z,100119.80
2022-08-28T03:28:49.517Z,100117.40
2022-08-28T03:31:23.122Z,100118.00
2022-08-28T03:33:52.734Z,100117.20
2022-08-28T03:36:28.518Z,100117.60
2022-08-28T03:39:01.131Z,100120.20
2022-08-28T03:41:31.087Z,100121.00
2022-08-28T03:44:01.102Z,100121.00
2022-08-28T03:46:33.093Z,100120.80
2022-08-28T03:49:04.206Z,100128.40
2022-08-28T03:51:34.254Z,100128.60
2022-08-28T03:54:04.232Z,100129.80
2022-08-28T03:56:32.366Z,100130.60
2022-08-28T03:59:02.769Z,100136.40
2022-08-28T04:01:30.754Z,100134.20
2022-08-28T04:03:58.593Z,100138.40
2022-08-28T04:06:27.592Z,100138.80
2022-08-28T04:08:55.819Z,100140.40
2022-08-28T04:11:28.872Z,100141.20
2022-08-28T04:13:58.061Z,100144.60
2022-08-28T04:16:26.157Z,100143.20
2022-08-28T04:18:54.893Z,100141.40
2022-08-28T04:21:24.319Z,100140.00
2022-08-28T04:23:53.624Z,100139.00
2022-08-28T04:26:27.433Z,100143.80
2022-08-28T04:28:56.205Z,100147.40
2022-08-28T04:31:31.391Z,100147.60
2022-08-28T04:34:06.905Z,100148.20
2022-08-28T04:36:35.938Z,100150.40
2022-08-28T04:39:08.554Z,100144.60
2022-08-28T04:41:37.559Z,100146.60
2022-08-28T04:44:06.533Z,100145.80
2022-08-28T04:46:35.662Z,100147.60
2022-08-28T04:49:05.964Z,100148.00
2022-08-28T04:51:34.028Z,100156.20
2022-08-28T04:54:02.474Z,100157.20
2022-08-28T04:56:30.246Z,100155.20
2022-08-28T04:58:58.061Z,100152.80
2022-08-28T05:01:26.267Z,100149.80
2022-08-28T05:03:57.745Z,100152.20
2022-08-28T05:06:28.875Z,100152.40
2022-08-28T05:08:58.486Z,100149.60
2022-08-28T05:11:34.156Z,100147.80
2022-08-28T05:14:11.523Z,100148.20
2022-08-28T05:16:47.799Z,100144.40
2022-08-28T05:19:18.198Z,100139.40
2022-08-28T05:21:47.349Z,100139.20
2022-08-28T05:24:15.446Z,100137.80
2022-08-28T05:26:43.396Z,100141.20
2022-08-28T05:29:12.486Z,100145.80
2022-08-28T05:31:41.234Z,100146.00
2022-08-28T05:34:10.410Z,100151.40
2022-08-28T05:36:39.916Z,100158.60
2022-08-28T05:39:11.594Z,100156.80
2022-08-28T05:41:43.965Z,100156.40
2022-08-28T05:44:15.398Z,100151.20
2022-08-28T05:46:47.623Z,100160.40
2022-08-28T05:49:18.387Z,100159.40
2022-08-28T05:51:47.042Z,100161.60
2022-08-28T05:54:16.619Z,100158.00
2022-08-28T05:56:46.314Z,100162.20
2022-08-28T05:59:15.888Z,100168.40
2022-08-28T06:01:48.037Z,100171.40
2022-08-28T06:04:25.531Z,100172.20
2022-08-28T06:06:54.476Z,100171.20
2022-08-28T06:09:29.422Z,100172.20
2022-08-28T06:12:01.917Z,100167.80
2022-08-28T06:14:31.483Z,100169.60
2022-08-28T06:17:02.054Z,100168.00
2022-08-28T06:19:33.634Z,100168.60
2022-08-28T06:22:07.347Z,100166.20
2022-08-28T06:24:36.144Z,100163.20
2022-08-28T06:27:04.522Z,100171.60
2022-08-28T06:29:32.502Z,100173.40
2022-08-28T06:32:03.418Z,100169.60
2022-08-28T06:34:31.437Z,100173.60
2022-08-28T06:36:59.999Z,100171.80
2022-08-28T06:39:28.003Z,100169.40
2022-08-28T06:41:55.886Z,100170.60
2022-08-28T06:44:23.906Z,100169.60
2022-08-28T06:46:54.434Z,100169.60
2022-08-28T06:49:22.792Z,100169.20
2022-08-28T06:51:51.294Z,100165.20
2022-08-28T06:54:22.619Z,100165.40
2022-08-28T06:56:52.636Z,100158.20
2022-08-28T06:59:20.804Z,100161.20
2022-08-28T07:01:48.806Z,100160.60
2022-08-28T07:04:16.739Z,100159.80
2022-08-28T07:06:53.781Z,100162.20
2022-08-28T07:09:24.182Z,100163.20
2022-08-28T07:11:53.215Z,100158.40
2022-08-28T07:14:21.153Z,100164.80
2022-08-28T07:16:49.296Z,100162.60
2022-08-28T07:19:17.379Z,100163.60
2022-08-28T07:21:45.897Z,100170.80
2022-08-28T07:24:15.414Z,100171.20
2022-08-28T07:26:45.066Z,100171.00
2022-08-28T07:29:14.435Z,100173.00
2022-08-28T07:31:47.092Z,100162.60
2022-08-28T07:34:17.142Z,100164.00
2022-08-28T07:36:46.119Z,100160.00
2022-08-28T07:39:15.688Z,100167.60
2022-08-28T07:41:43.984Z,100165.20
2022-08-28T07:44:33.727Z,100163.40
2022-08-28T07:47:05.862Z,100174.80
2022-08-28T07:49:34.884Z,100168.20
2022-08-28T07:52:03.666Z,100169.80
2022-08-28T07:54:31.504Z,100170.40
2022-08-28T07:56:59.376Z,100171.40
2022-08-28T07:59:30.514Z,100172.20
2022-08-28T08:02:06.156Z,100172.20
2022-08-28T08:04:34.654Z,100173.20
2022-08-28T08:07:04.727Z,100172.60
2022-08-28T08:09:41.586Z,100174.80
2022-08-28T08:12:12.186Z,100168.40
2022-08-28T08:14:42.500Z,100171.40
2022-08-28T08:17:11.192Z,100171.40
2022-08-28T08:19:39.895Z,100173.60
2022-08-28T08:22:07.783Z,100172.60
2022-08-28T08:24:35.614Z,100178.80
2022-08-28T08:27:03.583Z,100179.40
2022-08-28T08:29:38.288Z,100175.20
2022-08-28T08:32:11.137Z,100176.60
2022-08-28T08:34:45.979Z,100177.00
2022-08-28T08:37:15.177Z,100173.40
2022-08-28T08:39:43.699Z,100176.40
2022-08-28T08:42:28.060Z,100176.80
2022-08-28T08:44:59.674Z,100177.80
2022-08-28T08:47:40.307Z,100180.40
2022-08-28T08:50:20.713Z,100178.00
2022-08-28T08:53:10.290Z,100175.20
2022-08-28T08:55:50.664Z,100180.00
2022-08-28T08:58:39.507Z,100180.60
2022-08-28T09:01:32.283Z,100181.00
2022-08-28T09:04:34.441Z,100181.80
2022-08-28T09:07:14.859Z,100185.20
2022-08-28T09:09:50.363Z,100184.40
2022-08-28T09:12:28.814Z,100186.20
2022-08-28T09:15:11.365Z,100186.40
2022-08-28T09:17:50.605Z,100186.20
2022-08-28T09:20:32.641Z,100185.40
2022-08-28T09:23:02.008Z,100187.60
2022-08-28T09:26:12.872Z,100184.00
2022-08-28T09:28:42.467Z,100187.60
2022-08-28T09:31:19.476Z,100189.40
2022-08-28T09:33:51.948Z,100184.20
2022-08-28T09:36:38.426Z,100184.00
2022-08-28T09:39:29.621Z,100185.40
2022-08-28T09:42:40.297Z,100184.80
2022-08-28T09:45:21.385Z,100184.20
2022-08-28T09:47:58.308Z,100185.00
2022-08-28T09:50:29.257Z,100184.00
2022-08-28T09:53:21.676Z,100182.60
2022-08-28T09:56:05.385Z,100178.40
2022-08-28T09:58:36.601Z,100185.20
2022-08-28T10:01:29.745Z,100182.20
2022-08-28T10:04:19.560Z,100177.80
2022-08-28T10:07:03.318Z,100179.20
2022-08-28T10:09:52.362Z,100180.00
2022-08-28T10:12:47.273Z,100171.20
2022-08-28T10:15:51.018Z,100176.00
2022-08-28T10:18:31.951Z,100173.20
2022-08-28T10:21:22.948Z,100173.40
2022-08-28T10:24:26.037Z,100175.00
2022-08-28T10:27:03.664Z,100172.40
2022-08-28T10:29:52.542Z,100176.20
2022-08-28T10:33:07.747Z,100173.60
2022-08-28T10:35:51.358Z,100174.00
2022-08-28T10:38:38.445Z,100166.40
2022-08-28T10:41:23.819Z,100165.40
2022-08-28T10:44:00.649Z,100164.00
2022-08-28T10:46:42.933Z,100165.40
2022-08-28T10:49:34.722Z,100164.20
2022-08-28T10:52:04.634Z,100166.80
2022-08-28T10:55:03.059Z,100164.40
2022-08-28T10:57:49.231Z,100167.00
2022-08-28T11:00:21.418Z,100159.20
2022-08-28T11:02:57.792Z,100160.60
2022-08-28T11:05:32.563Z,100157.60
2022-08-28T11:08:06.840Z,100154.20
2022-08-28T11:10:37.551Z,100156.20
2022-08-28T11:13:09.583Z,100163.40
2022-08-28T11:15:52.557Z,100164.00
2022-08-28T11:18:48.573Z,100170.20
2022-08-28T11:21:35.370Z,100165.40
2022-08-28T11:24:21.322Z,100164.80
2022-08-28T11:27:31.423Z,100167.20
2022-08-28T11:30:11.297Z,100161.60
2022-08-28T11:32:49.876Z,100161.20
2022-08-28T11:35:20.660Z,100162.00
2022-08-28T11:37:52.310Z,100163.80
2022-08-28T11:40:30.512Z,100161.60
2022-08-28T11:43:17.082Z,100163.80
2022-08-28T11:45:46.741Z,100161.80
2022-08-28T11:48:33.526Z,100160.20
2022-08-28T11:51:31.324Z,100162.40
2022-08-28T11:54:40.149Z,100164.00
2022-08-28T11:57:13.991Z,100167.40
2022-08-28T12:00:05.146Z,100163.00
2022-08-28T12:02:43.758Z,100165.60
2022-08-28T12:05:33.163Z,100158.60
2022-08-28T12:08:05.003Z,100157.20
2022-08-28T12:10:32.884Z,100157.00
2022-08-28T12:13:05.153Z,100154.20
2022-08-28T12:15:33.613Z,100153.00
2022-08-28T12:18:05.293Z,100158.40
2022-08-28T12:20:51.249Z,100160.00
2022-08-28T12:23:43.274Z,100152.60
2022-08-28T12:26:28.590Z,100155.20
2022-08-28T12:29:16.280Z,100150.40
2022-08-28T12:32:24.702Z,100151.80
2022-08-28T12:34:58.435Z,100148.80
2022-08-28T12:37:52.520Z,100152.80
2022-08-28T12:40:47.440Z,100149.20
2022-08-28T12:43:25.753Z,100141.40
2022-08-28T12:46:19.992Z,100138.40
2022-08-28T12:48:54.508Z,100134.00
2022-08-28T12:51:29.712Z,100137.80
2022-08-28T12:54:02.768Z,100134.60
2022-08-28T12:56:36.096Z,100129.00
2022-08-28T12:59:27.244Z,100121.00
2022-08-28T13:02:02.909Z,100126.80
2022-08-28T13:04:45.467Z,100116.00
2022-08-28T13:07:18.551Z,100112.80
2022-08-28T13:09:54.268Z,100110.00
2022-08-28T13:12:56.168Z,100112.60
2022-08-28T13:16:01.461Z,100112.20
2022-08-28T13:18:50.281Z,100110.40
2022-08-28T13:21:30.766Z,100114.00
2022-08-28T13:24:22.727Z,100107.40
2022-08-28T13:27:06.350Z,100109.80
2022-08-28T13:29:36.045Z,100107.40
2022-08-28T13:32:15.912Z,100101.20
2022-08-28T13:35:13.770Z,100100.80
2022-08-28T13:37:49.704Z,100099.80
2022-08-28T13:40:55.647Z,100105.40
2022-08-28T13:43:16.303Z,100101.00
2022-08-28T13:45:48.170Z,100098.40
2022-08-28T13:48:27.257Z,100101.60
2022-08-28T13:51:10.224Z,100100.40
2022-08-28T13:53:39.198Z,100103.00
2022-08-28T13:56:07.375Z,100106.20
2022-08-28T13:58:35.273Z,100109.60
2022-08-28T14:01:05.114Z,100116.80
2022-08-28T14:03:37.608Z,100109.00
2022-08-28T14:06:16.943Z,100115.60
2022-08-28T14:08:46.761Z,100115.00
2022-08-28T14:11:16.162Z,100119.40
2022-08-28T14:13:47.360Z,100124.40
2022-08-28T14:16:25.868Z,100121.00
2022-08-28T14:18:54.017Z,100131.20
2022-08-28T14:21:24.766Z,100131.00
2022-08-28T14:23:52.847Z,100126.40
2022-08-28T14:26:20.699Z,100127.40
2022-08-28T14:28:48.485Z,100115.00
2022-08-28T14:31:16.496Z,100111.80
2022-08-28T14:33:45.178Z,100105.60
2022-08-28T14:36:21.072Z,100102.40
2022-08-28T14:38:54.107Z,100103.80
2022-08-28T14:41:25.698Z,100102.40
2022-08-28T14:43:55.470Z,100104.60
2022-08-28T14:46:36.834Z,100105.80
2022-08-28T14:49:11.257Z,100107.80
2022-08-28T14:51:43.980Z,100105.00
2022-08-28T14:54:15.938Z,100104.60
2022-08-28T14:56:45.005Z,100100.80
2022-08-28T14:59:23.797Z,100096.60
2022-08-28T15:01:55.272Z,100095.40
2022-08-28T15:04:26.088Z,100097.60
2022-08-28T15:06:59.284Z,100100.80
2022-08-28T15:09:27.958Z,100106.40
2022-08-28T15:11:55.821Z,100109.00
2022-08-28T15:14:23.729Z,100112.80
2022-08-28T15:16:53.566Z,100115.40
2022-08-28T15:19:23.406Z,100117.00
2022-08-28T15:21:56.595Z,100118.80
2022-08-28T15:24:30.866Z,100120.00
2022-08-28T15:26:59.825Z,100123.80
2022-08-28T15:29:29.970Z,100124.60
2022-08-28T15:31:58.801Z,100126.80
2022-08-28T15:34:28.557Z,100123.60
2022-08-28T15:36:58.062Z,100131.60
2022-08-28T15:39:47.231Z,100130.00
2022-08-28T15:42:15.776Z,100122.80
2022-08-28T15:44:44.418Z,100116.00
2022-08-28T15:47:14.043Z,100106.80
2022-08-28T15:49:46.921Z,100102.60
2022-08-28T15:52:19.300Z,100109.40
2022-08-28T15:54:48.751Z,100109.80
2022-08-28T15:57:17.679Z,100112.00
2022-08-28T15:59:48.710Z,100109.00
2022-08-28T16:02:22.633Z,100107.40
2022-08-28T16:04:52.024Z,100109.20
2022-08-28T16:07:21.749Z,100112.20
2022-08-28T16:09:49.798Z,100110.60
2022-08-28T16:12:18.251Z,100111.40
2022-08-28T16:14:46.260Z,100109.60
2022-08-28T16:17:14.113Z,100109.20
2022-08-28T16:19:43.407Z,100115.20
2022-08-28T16:22:15.939Z,100122.20
2022-08-28T16:24:45.408Z,100124.80
2022-08-28T16:27:15.721Z,100125.20
2022-08-28T16:29:45.429Z,100128.60
2022-08-28T16:32:13.351Z,100129.60
2022-08-28T16:34:44.523Z,100135.00
2022-08-28T16:37:13.406Z,100137.40
2022-08-28T16:39:47.020Z,100132.80
2022-08-28T16:42:15.631Z,100131.80
2022-08-28T16:44:43.490Z,100128.60
2022-08-28T16:47:11.406Z,100124.60
2022-08-28T16:49:39.289Z,100125.80
2022-08-28T16:52:07.235Z,100130.60
2022-08-28T16:54:35.030Z,100134.20
2022-08-28T16:57:02.917Z,100131.00
2022-08-28T16:59:31.210Z,100132.20
2022-08-28T17:01:59.202Z,100140.20
2022-08-28T17:04:27.586Z,100141.20
2022-08-28T17:06:55.697Z,100143.80
2022-08-28T17:09:24.758Z,100142.20
2022-08-28T17:11:53.522Z,100143.20
2022-08-28T17:14:22.460Z,100147.40
2022-08-28T17:16:51.501Z,100153.40
2022-08-28T17:19:20.944Z,100167.00
2022-08-28T17:22:07.737Z,100175.60
2022-08-28T17:24:36.247Z,100182.20
2022-08-28T17:27:05.829Z,100185.40
2022-08-28T17:29:36.395Z,100196.20
2022-08-28T17:32:05.810Z,100204.60
2022-08-28T17:34:34.515Z,100214.60
2022-08-28T17:37:04.035Z,100224.20
2022-08-28T17:39:31.957Z,100223.60
2022-08-28T17:42:00.059Z,100234.80
2022-08-28T17:44:28.210Z,100237.00
2022-08-28T17:46:56.304Z,100241.60
2022-08-28T17:49:24.191Z,100240.60
2022-08-28T17:51:51.911Z,100248.40
2022-08-28T17:54:21.827Z,100257.80
2022-08-28T17:56:52.102Z,100249.60
2022-08-28T17:59:20.733Z,100253.00
2022-08-28T18:01:49.991Z,100257.60
2022-08-28T18:04:24.278Z,100251.40
2022-08-28T18:06:54.735Z,100246.60
2022-08-28T18:09:24.392Z,100248.00
2022-08-28T18:11:52.373Z,100243.00
2022-08-28T18:14:20.998Z,100244.60
2022-08-28T18:16:48.880Z,100239.80
2022-08-28T18:19:16.790Z,100244.00
2022-08-28T18:21:45.504Z,100240.60
2022-08-28T18:24:13.381Z,100240.40
2022-08-28T18:26:42.618Z,100239.40
2022-08-28T18:29:12.336Z,100246.40
2022-08-28T18:31:41.726Z,100243.60
2022-08-28T18:34:10.229Z,100240.80
2022-08-28T18:36:43.078Z,100240.60
2022-08-28T18:39:11.361Z,100242.00
2022-08-28T18:41:44.192Z,100236.20
2022-08-28T18:44:14.674Z,100237.60
2022-08-28T18:46:44.728Z,100238.80
2022-08-28T18:49:13.222Z,100238.20
2022-08-28T18:51:43.557Z,100242.40
2022-08-28T18:54:16.649Z,100243.40
2022-08-28T18:56:46.518Z,100244.20
2022-08-28T18:59:16.292Z,100241.20
2022-08-28T19:01:44.595Z,100240.60
2022-08-28T19:04:12.665Z,100238.40
2022-08-28T19:06:41.646Z,100239.80
2022-08-28T19:09:09.517Z,100234.00
2022-08-28T19:11:47.413Z,100232.00
2022-08-28T19:14:15.234Z,100227.80
2022-08-28T19:16:43.029Z,100223.60
2022-08-28T19:19:10.916Z,100224.40
2022-08-28T19:21:38.941Z,100224.00
2022-08-28T19:24:06.938Z,100226.00
2022-08-28T19:26:38.612Z,100230.20
2022-08-28T19:29:07.332Z,100233.20
2022-08-28T19:31:37.808Z,100231.60
2022-08-28T19:34:07.809Z,100235.00
2022-08-28T19:36:36.110Z,100233.80
2022-08-28T19:39:06.472Z,100227.20
2022-08-28T19:41:35.161Z,100229.20
2022-08-28T19:44:05.130Z,100231.00
2022-08-28T19:46:36.190Z,100236.00
2022-08-28T19:49:07.001Z,100235.00
2022-08-28T19:51:38.152Z,100233.40
2022-08-28T19:54:11.072Z,100236.20
2022-08-28T19:56:39.954Z,100235.60
2022-08-28T19:59:08.960Z,100230.00
2022-08-28T20:01:43.548Z,100227.20
2022-08-28T20:04:16.764Z,100225.80
2022-08-28T20:06:45.860Z,100221.20
2022-08-28T20:09:14.186Z,100218.80
2022-08-28T20:11:44.951Z,100217.00
2022-08-28T20:14:15.082Z,100215.20
2022-08-28T20:16:48.423Z,100214.60
2022-08-28T20:19:17.008Z,100210.20
2022-08-28T20:21:49.944Z,100215.20
2022-08-28T20:24:24.193Z,100213.40
2022-08-28T20:26:52.564Z,100211.80
2022-08-28T20:29:21.700Z,100216.80
2022-08-28T20:31:50.338Z,100213.20
2022-08-28T20:34:20.143Z,100214.60
2022-08-28T20:36:49.244Z,100211.80
2022-08-28T20:39:19.002Z,100211.40
2022-08-28T20:41:47.916Z,100209.20
2022-08-28T20:44:18.858Z,100209.00
2022-08-28T20:46:51.594Z,100207.60
2022-08-28T20:49:22.288Z,100206.60
2022-08-28T20:51:56.305Z,100206.80
2022-08-28T20:54:29.053Z,100207.40
2022-08-28T20:57:02.491Z,100195.60
2022-08-28T20:59:39.377Z,100197.60
2022-08-28T21:02:20.600Z,100195.20
2022-08-28T21:04:49.680Z,100193.20
2022-08-28T21:07:20.379Z,100190.20
2022-08-28T21:10:05.610Z,100193.00
2022-08-28T21:12:37.889Z,100191.20
2022-08-28T21:15:12.588Z,100190.00
2022-08-28T21:17:41.245Z,100189.20
2022-08-28T21:20:14.454Z,100195.20
2022-08-28T21:22:43.334Z,100199.60
2022-08-28T21:25:13.129Z,100202.20
2022-08-28T21:27:41.849Z,100208.60
2022-08-28T21:30:14.559Z,100215.60
2022-08-28T21:32:43.714Z,100222.40
2022-08-28T21:35:13.850Z,100225.00
2022-08-28T21:37:42.730Z,100233.00
2022-08-28T21:40:14.098Z,100234.40
2022-08-28T21:42:42.346Z,100241.60
2022-08-28T21:45:12.379Z,100244.20
2022-08-28T21:47:43.239Z,100242.40
2022-08-28T21:50:11.977Z,100238.40
2022-08-28T21:52:40.246Z,100243.00
2022-08-28T21:55:13.050Z,100248.00
2022-08-28T21:57:41.505Z,100253.80
2022-08-28T22:00:17.588Z,100261.60
2022-08-28T22:02:46.988Z,100266.40
2022-08-28T22:05:16.071Z,100264.20
2022-08-28T22:07:45.107Z,100269.40
2022-08-28T22:10:12.971Z,100272.20
2022-08-28T22:12:40.792Z,100264.80
2022-08-28T22:15:09.041Z,100264.20
2022-08-28T22:17:36.822Z,100265.80
2022-08-28T22:20:05.032Z,100266.20
2022-08-28T22:22:51.726Z,100263.80
2022-08-28T22:25:19.770Z,100265.60
2022-08-28T22:27:47.654Z,100274.40
2022-08-28T22:30:15.556Z,100280.20
2022-08-28T22:32:45.374Z,100281.40
2022-08-28T22:35:13.179Z,100288.20
2022-08-28T22:37:40.992Z,100288.60
2022-08-28T22:40:13.360Z,100281.00
2022-08-28T22:42:42.652Z,100272.00
2022-08-28T22:45:10.778Z,100272.80
2022-08-28T22:47:39.622Z,100271.00
2022-08-28T22:50:08.562Z,100269.20
2022-08-28T22:52:37.702Z,100270.40
2022-08-28T22:55:10.585Z,100273.80
2022-08-28T22:57:40.505Z,100271.60
2022-08-28T23:00:13.815Z,100270.20
2022-08-28T23:02:43.566Z,100273.00
2022-08-28T23:05:11.701Z,100280.40
2022-08-28T23:07:39.556Z,100291.80
2022-08-28T23:10:09.150Z,100304.40
2022-08-28T23:12:37.658Z,100316.80
2022-08-28T23:15:10.003Z,100314.20
2022-08-28T23:17:38.312Z,100301.40
2022-08-28T23:20:12.329Z,100298.00
2022-08-28T23:22:40.233Z,100300.00
2022-08-28T23:25:13.553Z,100301.60
2022-08-28T23:27:43.024Z,100290.20
2022-08-28T23:30:13.154Z,100284.20
2022-08-28T23:32:41.000Z,100276.60
2022-08-28T23:35:12.632Z,100264.00
2022-08-28T23:37:42.364Z,100252.60
2022-08-28T23:40:17.788Z,100249.40
2022-08-28T23:42:46.492Z,100245.80
2022-08-28T23:45:18.601Z,100240.40
2022-08-28T23:47:47.578Z,100235.40
2022-08-28T23:50:21.708Z,100234.80
2022-08-28T23:52:50.304Z,100238.20
2022-08-28T23:55:20.293Z,100240.40
2022-08-28T23:57:48.959Z,100249.80
